Tropical Cyclones
[Index]
Main Index Home Page Stock Weather Photos Extreme Storms Discussion Storm News and Storm Chasing Reports Tropical Cyclones / Hurricanes / Typhoons Weather Data and Links Wild Fires / Bushfires Weather Observation Techniques Weather Picture Catalogue Tornado Pictures and Reports Stock Video Footage and DVDs for sale
Season 1999-2000 Tropical Cyclone CONNIE Track Map
Season 1999-2000 Summaries (Operational Data): [AU] [SIO] [SPAC] [SH]
<<- Previous TC | 1999-2000 Season | Next TC ->>

click for intensity scale information  Lat/long Grid: Show Hide

 Date Labels: Show Hide

Operational Tropical Cyclone Data : JTWC Advisories

Name: CONNIE
Number: 0008

25 Jan 2000 06:00 UTC to 02 Feb 2000 06:00 UTC

    date/time    lat    long     hPa   cat  kts
2000-01-25 06   15.0    56.0     999         25          
2000-01-25 12   15.1    55.1     997         30          
2000-01-25 18   15.2    55.2     991    1    40          
2000-01-26 00   15.2    55.4     991    1    40          
2000-01-26 06   14.8    55.3     988    1    45          
2000-01-26 12   14.4    55.3     988    1    45          
2000-01-26 18   14.2    55.7     988    1    45          
2000-01-27 00   14.6    55.6     986    1    45          
2000-01-27 06   15.2    56.4     975    2    60          
2000-01-27 12   15.6    56.5     955    3    80          
2000-01-27 18   16.1    56.8     940    4    90          
2000-01-28 00   16.4    57.0     940    4    90          
2000-01-28 06   16.6    57.1     938    4    90          
2000-01-28 12   17.0    57.0     938    4    90          
2000-01-28 18   17.7    56.6     928    4   100          
2000-01-29 00   18.1    56.2     930    4   100          
2000-01-29 06   18.9    55.2     930    4   100          
2000-01-29 12   19.8    54.5     950    3    85          
2000-01-29 18   20.9    53.7     960    3    80          
2000-01-30 00   22.0    53.0     968    3    70          
2000-01-30 06   23.1    51.6     970    3    70          
2000-01-30 12   24.4    50.6     972    2    60          
2000-01-30 18   25.5    50.2     976    2    55          
2000-01-31 00   26.5    50.0     976    2    55          
2000-01-31 06   27.5    50.5     980    2    55          
2000-01-31 12   28.6    51.1     980    2    55          
2000-01-31 18   29.7    51.7     985    2    50          
2000-02-01 00   30.5    53.4     985    2    50          
2000-02-01 06   31.3    52.3                             
2000-02-01 18   32.1    53.3                             
2000-02-02 06   33.4    54.5                             
Winds are 10-min average.

Tropical cyclone tracks developed by Michael Bath using operational warnings and advisories and Google Maps.


[Australian Severe Weather index] [Copyright Notice] [Email Contacts] [Search This Site] [Privacy Policy]
Document: tropical_cyclone_connie.htm Updated: 28 May 2013